sensor_id;sensor_type;location;lat;lon;timestamp;temperature;humidity
83660;SHT30;73632;50.808;3.422;2023-12-20T00:01:48;6.11;87.85
83660;SHT30;73632;50.808;3.422;2023-12-20T00:04:14;6.02;88.09
83660;SHT30;73632;50.808;3.422;2023-12-20T00:06:40;5.97;88.27
83660;SHT30;73632;50.808;3.422;2023-12-20T00:09:05;5.94;88.31
83660;SHT30;73632;50.808;3.422;2023-12-20T00:11:30;5.95;88.51
83660;SHT30;73632;50.808;3.422;2023-12-20T00:13:56;5.90;88.52
83660;SHT30;73632;50.808;3.422;2023-12-20T00:16:21;5.83;89.16
83660;SHT30;73632;50.808;3.422;2023-12-20T00:18:46;5.84;88.65
83660;SHT30;73632;50.808;3.422;2023-12-20T00:21:12;5.84;88.51
83660;SHT30;73632;50.808;3.422;2023-12-20T00:23:37;5.81;89.17
83660;SHT30;73632;50.808;3.422;2023-12-20T00:26:03;5.75;89.47
83660;SHT30;73632;50.808;3.422;2023-12-20T00:28:28;5.93;89.06
83660;SHT30;73632;50.808;3.422;2023-12-20T00:30:54;5.85;88.96
83660;SHT30;73632;50.808;3.422;2023-12-20T00:33:19;5.84;88.97
83660;SHT30;73632;50.808;3.422;2023-12-20T00:35:44;5.90;88.44
83660;SHT30;73632;50.808;3.422;2023-12-20T00:38:10;5.79;88.81
83660;SHT30;73632;50.808;3.422;2023-12-20T00:40:36;5.78;88.90
83660;SHT30;73632;50.808;3.422;2023-12-20T00:43:02;5.81;88.67
83660;SHT30;73632;50.808;3.422;2023-12-20T00:45:27;5.77;88.69
83660;SHT30;73632;50.808;3.422;2023-12-20T00:47:53;5.74;88.71
83660;SHT30;73632;50.808;3.422;2023-12-20T00:50:18;5.71;88.93
83660;SHT30;73632;50.808;3.422;2023-12-20T00:52:43;5.70;88.66
83660;SHT30;73632;50.808;3.422;2023-12-20T00:55:09;5.67;88.45
83660;SHT30;73632;50.808;3.422;2023-12-20T00:57:34;5.73;88.35
83660;SHT30;73632;50.808;3.422;2023-12-20T01:00:00;5.75;88.33
83660;SHT30;73632;50.808;3.422;2023-12-20T01:02:25;5.79;87.93
83660;SHT30;73632;50.808;3.422;2023-12-20T01:04:50;5.77;87.99
83660;SHT30;73632;50.808;3.422;2023-12-20T01:07:16;5.67;88.43
83660;SHT30;73632;50.808;3.422;2023-12-20T01:09:41;5.70;88.37
83660;SHT30;73632;50.808;3.422;2023-12-20T01:12:07;5.64;87.99
83660;SHT30;73632;50.808;3.422;2023-12-20T01:14:32;5.64;88.11
83660;SHT30;73632;50.808;3.422;2023-12-20T01:16:58;5.58;88.24
83660;SHT30;73632;50.808;3.422;2023-12-20T01:19:24;5.63;88.50
83660;SHT30;73632;50.808;3.422;2023-12-20T01:21:50;5.60;88.67
83660;SHT30;73632;50.808;3.422;2023-12-20T01:24:15;5.75;88.06
83660;SHT30;73632;50.808;3.422;2023-12-20T01:26:41;5.75;88.04
83660;SHT30;73632;50.808;3.422;2023-12-20T01:29:06;5.73;87.90
83660;SHT30;73632;50.808;3.422;2023-12-20T01:31:32;5.61;87.99
83660;SHT30;73632;50.808;3.422;2023-12-20T01:33:57;5.65;87.96
83660;SHT30;73632;50.808;3.422;2023-12-20T01:36:22;5.75;87.93
83660;SHT30;73632;50.808;3.422;2023-12-20T01:38:48;5.70;87.91
83660;SHT30;73632;50.808;3.422;2023-12-20T01:41:13;5.68;87.95
83660;SHT30;73632;50.808;3.422;2023-12-20T01:43:39;5.65;88.30
83660;SHT30;73632;50.808;3.422;2023-12-20T01:46:04;5.68;88.08
83660;SHT30;73632;50.808;3.422;2023-12-20T01:48:30;5.65;87.48
83660;SHT30;73632;50.808;3.422;2023-12-20T01:50:58;5.60;87.51
83660;SHT30;73632;50.808;3.422;2023-12-20T01:53:25;5.57;87.60
83660;SHT30;73632;50.808;3.422;2023-12-20T01:55:52;5.51;87.61
83660;SHT30;73632;50.808;3.422;2023-12-20T01:58:19;5.48;87.75
83660;SHT30;73632;50.808;3.422;2023-12-20T02:00:45;5.43;88.05
83660;SHT30;73632;50.808;3.422;2023-12-20T02:03:11;5.31;88.12
83660;SHT30;73632;50.808;3.422;2023-12-20T02:05:37;5.27;88.15
83660;SHT30;73632;50.808;3.422;2023-12-20T02:08:03;5.31;88.30
83660;SHT30;73632;50.808;3.422;2023-12-20T02:10:29;5.24;88.42
83660;SHT30;73632;50.808;3.422;2023-12-20T02:12:55;5.22;88.04
83660;SHT30;73632;50.808;3.422;2023-12-20T02:15:20;5.20;88.15
83660;SHT30;73632;50.808;3.422;2023-12-20T02:17:47;5.23;88.35
83660;SHT30;73632;50.808;3.422;2023-12-20T02:20:12;5.19;88.23
83660;SHT30;73632;50.808;3.422;2023-12-20T02:22:38;5.20;88.28
83660;SHT30;73632;50.808;3.422;2023-12-20T02:25:03;5.18;88.21
83660;SHT30;73632;50.808;3.422;2023-12-20T02:27:29;5.19;88.53
83660;SHT30;73632;50.808;3.422;2023-12-20T02:29:55;5.27;88.23
83660;SHT30;73632;50.808;3.422;2023-12-20T02:32:20;5.20;88.38
83660;SHT30;73632;50.808;3.422;2023-12-20T02:34:49;5.27;88.67
83660;SHT30;73632;50.808;3.422;2023-12-20T02:37:16;5.34;88.37
83660;SHT30;73632;50.808;3.422;2023-12-20T02:39:41;5.27;88.43
83660;SHT30;73632;50.808;3.422;2023-12-20T02:42:06;5.16;88.69
83660;SHT30;73632;50.808;3.422;2023-12-20T02:44:32;5.19;88.46
83660;SHT30;73632;50.808;3.422;2023-12-20T02:46:57;5.13;88.55
83660;SHT30;73632;50.808;3.422;2023-12-20T02:49:23;5.15;88.47
83660;SHT30;73632;50.808;3.422;2023-12-20T02:51:48;5.12;88.43
83660;SHT30;73632;50.808;3.422;2023-12-20T02:54:14;5.10;88.58
83660;SHT30;73632;50.808;3.422;2023-12-20T02:56:39;4.99;89.06
83660;SHT30;73632;50.808;3.422;2023-12-20T02:59:04;5.03;88.89
83660;SHT30;73632;50.808;3.422;2023-12-20T03:01:34;5.00;88.98
83660;SHT30;73632;50.808;3.422;2023-12-20T03:04:00;4.99;89.01
83660;SHT30;73632;50.808;3.422;2023-12-20T03:06:25;4.96;89.25
83660;SHT30;73632;50.808;3.422;2023-12-20T03:08:51;4.96;89.34
83660;SHT30;73632;50.808;3.422;2023-12-20T03:11:16;5.01;89.28
83660;SHT30;73632;50.808;3.422;2023-12-20T03:13:42;4.99;89.25
83660;SHT30;73632;50.808;3.422;2023-12-20T03:16:11;4.97;89.28
83660;SHT30;73632;50.808;3.422;2023-12-20T03:18:37;4.93;89.50
83660;SHT30;73632;50.808;3.422;2023-12-20T03:21:04;5.00;89.12
83660;SHT30;73632;50.808;3.422;2023-12-20T03:23:29;5.01;88.88
83660;SHT30;73632;50.808;3.422;2023-12-20T03:25:56;5.09;88.52
83660;SHT30;73632;50.808;3.422;2023-12-20T03:28:22;4.97;88.92
83660;SHT30;73632;50.808;3.422;2023-12-20T03:30:48;4.89;89.27
83660;SHT30;73632;50.808;3.422;2023-12-20T03:33:14;4.92;89.15
83660;SHT30;73632;50.808;3.422;2023-12-20T03:35:39;4.92;89.13
83660;SHT30;73632;50.808;3.422;2023-12-20T03:38:04;4.95;89.04
83660;SHT30;73632;50.808;3.422;2023-12-20T03:40:30;5.05;88.69
83660;SHT30;73632;50.808;3.422;2023-12-20T03:42:55;4.95;88.97
83660;SHT30;73632;50.808;3.422;2023-12-20T03:45:21;4.90;89.37
83660;SHT30;73632;50.808;3.422;2023-12-20T03:47:46;4.95;89.09
83660;SHT30;73632;50.808;3.422;2023-12-20T03:50:12;4.96;89.02
83660;SHT30;73632;50.808;3.422;2023-12-20T03:52:38;4.96;88.89
83660;SHT30;73632;50.808;3.422;2023-12-20T03:55:04;4.92;89.04
83660;SHT30;73632;50.808;3.422;2023-12-20T03:57:29;4.90;89.27
83660;SHT30;73632;50.808;3.422;2023-12-20T03:59:54;4.85;89.34
83660;SHT30;73632;50.808;3.422;2023-12-20T04:02:20;4.90;89.18
83660;SHT30;73632;50.808;3.422;2023-12-20T04:04:46;4.85;89.09
83660;SHT30;73632;50.808;3.422;2023-12-20T04:07:11;4.88;89.23
83660;SHT30;73632;50.808;3.422;2023-12-20T04:09:37;4.83;89.25
83660;SHT30;73632;50.808;3.422;2023-12-20T04:12:03;4.80;89.40
83660;SHT30;73632;50.808;3.422;2023-12-20T04:14:28;4.82;89.34
83660;SHT30;73632;50.808;3.422;2023-12-20T04:16:54;4.83;89.17
83660;SHT30;73632;50.808;3.422;2023-12-20T04:19:19;4.78;89.33
83660;SHT30;73632;50.808;3.422;2023-12-20T04:21:45;4.69;89.38
83660;SHT30;73632;50.808;3.422;2023-12-20T04:24:10;4.72;89.53
83660;SHT30;73632;50.808;3.422;2023-12-20T04:26:36;4.68;89.75
83660;SHT30;73632;50.808;3.422;2023-12-20T04:29:01;4.78;89.34
83660;SHT30;73632;50.808;3.422;2023-12-20T04:31:27;4.75;89.40
83660;SHT30;73632;50.808;3.422;2023-12-20T04:33:52;4.76;89.29
83660;SHT30;73632;50.808;3.422;2023-12-20T04:36:18;4.71;89.49
83660;SHT30;73632;50.808;3.422;2023-12-20T04:38:43;4.72;89.37
83660;SHT30;73632;50.808;3.422;2023-12-20T04:41:08;4.72;89.36
83660;SHT30;73632;50.808;3.422;2023-12-20T04:43:34;4.75;89.16
83660;SHT30;73632;50.808;3.422;2023-12-20T04:45:59;4.71;89.37
83660;SHT30;73632;50.808;3.422;2023-12-20T04:48:25;4.76;89.24
83660;SHT30;73632;50.808;3.422;2023-12-20T04:50:50;4.76;89.30
83660;SHT30;73632;50.808;3.422;2023-12-20T04:53:15;4.78;88.93
83660;SHT30;73632;50.808;3.422;2023-12-20T04:55:41;4.78;89.02
83660;SHT30;73632;50.808;3.422;2023-12-20T04:58:06;4.71;89.08
83660;SHT30;73632;50.808;3.422;2023-12-20T05:00:32;4.71;89.37
83660;SHT30;73632;50.808;3.422;2023-12-20T05:02:57;4.76;88.94
83660;SHT30;73632;50.808;3.422;2023-12-20T05:05:22;4.72;89.24
83660;SHT30;73632;50.808;3.422;2023-12-20T05:07:48;4.71;89.35
83660;SHT30;73632;50.808;3.422;2023-12-20T05:10:14;4.82;88.98
83660;SHT30;73632;50.808;3.422;2023-12-20T05:12:39;4.73;89.12
83660;SHT30;73632;50.808;3.422;2023-12-20T05:15:06;4.71;89.03
83660;SHT30;73632;50.808;3.422;2023-12-20T05:17:31;4.72;88.98
83660;SHT30;73632;50.808;3.422;2023-12-20T05:19:57;4.75;88.88
83660;SHT30;73632;50.808;3.422;2023-12-20T05:22:22;4.72;88.92
83660;SHT30;73632;50.808;3.422;2023-12-20T05:24:48;4.66;89.17
83660;SHT30;73632;50.808;3.422;2023-12-20T05:27:13;4.69;88.87
83660;SHT30;73632;50.808;3.422;2023-12-20T05:29:38;4.69;89.01
83660;SHT30;73632;50.808;3.422;2023-12-20T05:32:04;4.64;88.94
83660;SHT30;73632;50.808;3.422;2023-12-20T05:34:30;4.65;88.90
83660;SHT30;73632;50.808;3.422;2023-12-20T05:36:56;4.62;89.13
83660;SHT30;73632;50.808;3.422;2023-12-20T05:39:21;4.61;89.16
83660;SHT30;73632;50.808;3.422;2023-12-20T05:41:47;4.61;89.04
83660;SHT30;73632;50.808;3.422;2023-12-20T05:44:13;4.58;89.03
83660;SHT30;73632;50.808;3.422;2023-12-20T05:46:38;4.69;88.70
83660;SHT30;73632;50.808;3.422;2023-12-20T05:49:05;4.65;88.96
83660;SHT30;73632;50.808;3.422;2023-12-20T05:51:30;4.75;89.05
83660;SHT30;73632;50.808;3.422;2023-12-20T05:53:56;4.90;88.77
83660;SHT30;73632;50.808;3.422;2023-12-20T05:56:21;5.03;88.37
83660;SHT30;73632;50.808;3.422;2023-12-20T05:58:47;5.10;88.20
83660;SHT30;73632;50.808;3.422;2023-12-20T06:01:14;5.06;88.17
83660;SHT30;73632;50.808;3.422;2023-12-20T06:03:41;5.03;88.02
83660;SHT30;73632;50.808;3.422;2023-12-20T06:06:07;5.08;87.67
83660;SHT30;73632;50.808;3.422;2023-12-20T06:08:33;4.95;88.00
83660;SHT30;73632;50.808;3.422;2023-12-20T06:10:58;4.92;88.39
83660;SHT30;73632;50.808;3.422;2023-12-20T06:13:23;4.80;88.56
83660;SHT30;73632;50.808;3.422;2023-12-20T06:15:49;4.83;88.42
83660;SHT30;73632;50.808;3.422;2023-12-20T06:18:14;4.93;88.17
83660;SHT30;73632;50.808;3.422;2023-12-20T06:20:39;4.96;88.03
83660;SHT30;73632;50.808;3.422;2023-12-20T06:23:05;4.86;88.19
83660;SHT30;73632;50.808;3.422;2023-12-20T06:25:30;4.90;88.12
83660;SHT30;73632;50.808;3.422;2023-12-20T06:27:56;4.92;88.25
83660;SHT30;73632;50.808;3.422;2023-12-20T06:30:21;4.83;88.54
83660;SHT30;73632;50.808;3.422;2023-12-20T06:32:46;4.90;88.38
83660;SHT30;73632;50.808;3.422;2023-12-20T06:35:12;4.89;88.28
83660;SHT30;73632;50.808;3.422;2023-12-20T06:37:38;4.89;88.38
83660;SHT30;73632;50.808;3.422;2023-12-20T06:40:09;4.86;88.35
83660;SHT30;73632;50.808;3.422;2023-12-20T06:42:34;4.89;88.31
83660;SHT30;73632;50.808;3.422;2023-12-20T06:45:00;4.85;88.48
83660;SHT30;73632;50.808;3.422;2023-12-20T06:47:25;4.78;88.82
83660;SHT30;73632;50.808;3.422;2023-12-20T06:49:51;4.88;88.27
83660;SHT30;73632;50.808;3.422;2023-12-20T06:52:17;4.82;88.27
83660;SHT30;73632;50.808;3.422;2023-12-20T06:54:42;4.82;88.31
83660;SHT30;73632;50.808;3.422;2023-12-20T06:57:08;4.78;88.50
83660;SHT30;73632;50.808;3.422;2023-12-20T06:59:38;4.83;88.49
83660;SHT30;73632;50.808;3.422;2023-12-20T07:02:05;4.86;88.34
83660;SHT30;73632;50.808;3.422;2023-12-20T07:04:30;4.80;88.34
83660;SHT30;73632;50.808;3.422;2023-12-20T07:06:56;4.89;87.97
83660;SHT30;73632;50.808;3.422;2023-12-20T07:09:23;4.88;88.25
83660;SHT30;73632;50.808;3.422;2023-12-20T07:11:48;4.93;87.82
83660;SHT30;73632;50.808;3.422;2023-12-20T07:14:14;4.88;88.28
83660;SHT30;73632;50.808;3.422;2023-12-20T07:16:39;4.88;88.43
83660;SHT30;73632;50.808;3.422;2023-12-20T07:19:05;4.92;88.20
83660;SHT30;73632;50.808;3.422;2023-12-20T07:21:31;4.97;88.05
83660;SHT30;73632;50.808;3.422;2023-12-20T07:23:57;5.01;87.91
83660;SHT30;73632;50.808;3.422;2023-12-20T07:26:22;5.00;87.89
83660;SHT30;73632;50.808;3.422;2023-12-20T07:28:48;5.00;88.17
83660;SHT30;73632;50.808;3.422;2023-12-20T07:31:15;5.00;88.17
83660;SHT30;73632;50.808;3.422;2023-12-20T07:33:41;4.99;87.87
83660;SHT30;73632;50.808;3.422;2023-12-20T07:36:06;5.00;87.83
83660;SHT30;73632;50.808;3.422;2023-12-20T07:38:32;4.95;87.82
83660;SHT30;73632;50.808;3.422;2023-12-20T07:40:58;4.92;88.07
83660;SHT30;73632;50.808;3.422;2023-12-20T07:43:23;5.03;87.42
83660;SHT30;73632;50.808;3.422;2023-12-20T07:45:49;4.93;87.71
83660;SHT30;73632;50.808;3.422;2023-12-20T07:48:14;4.97;87.49
83660;SHT30;73632;50.808;3.422;2023-12-20T07:50:39;4.93;87.81
83660;SHT30;73632;50.808;3.422;2023-12-20T07:53:05;4.97;87.80
83660;SHT30;73632;50.808;3.422;2023-12-20T07:55:31;4.95;87.76
83660;SHT30;73632;50.808;3.422;2023-12-20T07:57:57;5.00;87.59
83660;SHT30;73632;50.808;3.422;2023-12-20T08:00:22;5.03;87.61
83660;SHT30;73632;50.808;3.422;2023-12-20T08:02:48;5.08;87.54
83660;SHT30;73632;50.808;3.422;2023-12-20T08:05:13;5.09;87.50
83660;SHT30;73632;50.808;3.422;2023-12-20T08:07:39;5.16;87.33
83660;SHT30;73632;50.808;3.422;2023-12-20T08:10:05;5.19;87.31
83660;SHT30;73632;50.808;3.422;2023-12-20T08:12:30;5.15;87.42
83660;SHT30;73632;50.808;3.422;2023-12-20T08:14:56;5.26;87.31
83660;SHT30;73632;50.808;3.422;2023-12-20T08:17:22;5.24;87.20
83660;SHT30;73632;50.808;3.422;2023-12-20T08:19:48;5.31;86.98
83660;SHT30;73632;50.808;3.422;2023-12-20T08:22:14;5.36;86.99
83660;SHT30;73632;50.808;3.422;2023-12-20T08:24:40;5.46;86.61
83660;SHT30;73632;50.808;3.422;2023-12-20T08:27:05;5.50;86.45
83660;SHT30;73632;50.808;3.422;2023-12-20T08:29:31;5.65;86.19
83660;SHT30;73632;50.808;3.422;2023-12-20T08:31:56;5.73;86.28
83660;SHT30;73632;50.808;3.422;2023-12-20T08:34:22;5.91;85.27
83660;SHT30;73632;50.808;3.422;2023-12-20T08:36:50;6.19;84.32
83660;SHT30;73632;50.808;3.422;2023-12-20T08:39:15;6.33;83.74
83660;SHT30;73632;50.808;3.422;2023-12-20T08:41:40;6.60;83.15
83660;SHT30;73632;50.808;3.422;2023-12-20T08:44:06;6.80;82.18
83660;SHT30;73632;50.808;3.422;2023-12-20T08:46:31;6.96;81.90
83660;SHT30;73632;50.808;3.422;2023-12-20T08:48:57;7.43;80.75
83660;SHT30;73632;50.808;3.422;2023-12-20T08:51:22;7.77;80.39
83660;SHT30;73632;50.808;3.422;2023-12-20T08:53:50;8.16;78.29
83660;SHT30;73632;50.808;3.422;2023-12-20T08:56:16;8.50;77.38
83660;SHT30;73632;50.808;3.422;2023-12-20T08:58:43;8.84;76.07
83660;SHT30;73632;50.808;3.422;2023-12-20T09:01:08;8.98;77.57
83660;SHT30;73632;50.808;3.422;2023-12-20T09:03:34;8.20;77.60
83660;SHT30;73632;50.808;3.422;2023-12-20T09:06:00;7.71;79.43
83660;SHT30;73632;50.808;3.422;2023-12-20T09:08:25;7.32;81.06
83660;SHT30;73632;50.808;3.422;2023-12-20T09:10:51;7.20;82.11
83660;SHT30;73632;50.808;3.422;2023-12-20T09:13:16;7.10;82.45
83660;SHT30;73632;50.808;3.422;2023-12-20T09:15:41;7.13;82.46
83660;SHT30;73632;50.808;3.422;2023-12-20T09:18:07;7.20;82.87
83660;SHT30;73632;50.808;3.422;2023-12-20T09:20:33;7.20;83.13
83660;SHT30;73632;50.808;3.422;2023-12-20T09:22:59;7.17;82.97
83660;SHT30;73632;50.808;3.422;2023-12-20T09:25:24;7.13;83.00
83660;SHT30;73632;50.808;3.422;2023-12-20T09:27:51;7.04;83.54
83660;SHT30;73632;50.808;3.422;2023-12-20T09:30:17;7.03;83.58
83660;SHT30;73632;50.808;3.422;2023-12-20T09:32:43;7.04;83.76
83660;SHT30;73632;50.808;3.422;2023-12-20T09:35:08;7.20;83.16
83660;SHT30;73632;50.808;3.422;2023-12-20T09:37:34;7.21;83.22
83660;SHT30;73632;50.808;3.422;2023-12-20T09:39:59;7.32;83.33
83660;SHT30;73632;50.808;3.422;2023-12-20T09:42:33;7.35;83.54
83660;SHT30;73632;50.808;3.422;2023-12-20T09:45:03;7.28;83.53
83660;SHT30;73632;50.808;3.422;2023-12-20T09:47:32;7.34;83.24
83660;SHT30;73632;50.808;3.422;2023-12-20T09:49:58;7.31;83.41
83660;SHT30;73632;50.808;3.422;2023-12-20T09:52:24;7.37;83.45
83660;SHT30;73632;50.808;3.422;2023-12-20T09:54:49;7.45;83.13
83660;SHT30;73632;50.808;3.422;2023-12-20T09:57:17;7.44;83.90
83660;SHT30;73632;50.808;3.422;2023-12-20T09:59:43;7.50;83.77
83660;SHT30;73632;50.808;3.422;2023-12-20T10:02:12;7.47;83.45
83660;SHT30;73632;50.808;3.422;2023-12-20T10:04:46;7.48;83.63
83660;SHT30;73632;50.808;3.422;2023-12-20T10:07:12;7.58;83.48
83660;SHT30;73632;50.808;3.422;2023-12-20T10:09:38;7.64;83.34
83660;SHT30;73632;50.808;3.422;2023-12-20T10:12:04;7.69;83.24
83660;SHT30;73632;50.808;3.422;2023-12-20T10:14:30;7.74;83.16
83660;SHT30;73632;50.808;3.422;2023-12-20T10:17:04;7.95;83.01
83660;SHT30;73632;50.808;3.422;2023-12-20T10:19:31;7.90;82.67
83660;SHT30;73632;50.808;3.422;2023-12-20T10:21:58;7.83;83.03
83660;SHT30;73632;50.808;3.422;2023-12-20T10:24:24;7.93;82.60
83660;SHT30;73632;50.808;3.422;2023-12-20T10:33:34;8.09;82.58
83660;SHT30;73632;50.808;3.422;2023-12-20T10:36:00;8.14;81.92
83660;SHT30;73632;50.808;3.422;2023-12-20T10:38:25;8.19;82.04
83660;SHT30;73632;50.808;3.422;2023-12-20T10:40:54;8.19;81.83
83660;SHT30;73632;50.808;3.422;2023-12-20T10:43:23;8.23;82.28
83660;SHT30;73632;50.808;3.422;2023-12-20T10:45:51;8.43;81.44
83660;SHT30;73632;50.808;3.422;2023-12-20T10:48:18;8.43;81.67
83660;SHT30;73632;50.808;3.422;2023-12-20T10:50:44;8.50;81.24
83660;SHT30;73632;50.808;3.422;2023-12-20T10:53:10;8.53;81.52
83660;SHT30;73632;50.808;3.422;2023-12-20T10:55:37;8.59;81.76
83660;SHT30;73632;50.808;3.422;2023-12-20T10:58:09;8.59;81.13
83660;SHT30;73632;50.808;3.422;2023-12-20T11:00:36;8.56;81.59
83660;SHT30;73632;50.808;3.422;2023-12-20T11:03:05;8.65;81.35
83660;SHT30;73632;50.808;3.422;2023-12-20T11:05:50;8.75;80.94
83660;SHT30;73632;50.808;3.422;2023-12-20T11:11:10;8.74;80.79
83660;SHT30;73632;50.808;3.422;2023-12-20T11:13:44;8.64;81.30
83660;SHT30;73632;50.808;3.422;2023-12-20T11:16:13;8.65;81.59
83660;SHT30;73632;50.808;3.422;2023-12-20T11:18:40;8.70;81.46
83660;SHT30;73632;50.808;3.422;2023-12-20T11:21:06;8.67;80.90
83660;SHT30;73632;50.808;3.422;2023-12-20T11:23:35;8.60;81.32
83660;SHT30;73632;50.808;3.422;2023-12-20T11:26:02;8.59;81.61
83660;SHT30;73632;50.808;3.422;2023-12-20T11:28:28;8.59;81.73
83660;SHT30;73632;50.808;3.422;2023-12-20T11:30:56;8.64;81.45
83660;SHT30;73632;50.808;3.422;2023-12-20T11:33:36;8.67;81.86
83660;SHT30;73632;50.808;3.422;2023-12-20T11:36:02;8.63;82.02
83660;SHT30;73632;50.808;3.422;2023-12-20T11:38:35;8.60;81.86
83660;SHT30;73632;50.808;3.422;2023-12-20T11:41:01;8.63;81.98
83660;SHT30;73632;50.808;3.422;2023-12-20T11:43:35;8.64;81.87
83660;SHT30;73632;50.808;3.422;2023-12-20T11:46:08;8.71;81.77
83660;SHT30;73632;50.808;3.422;2023-12-20T11:48:36;8.68;81.96
83660;SHT30;73632;50.808;3.422;2023-12-20T11:51:02;8.71;81.79
83660;SHT30;73632;50.808;3.422;2023-12-20T11:53:29;8.80;81.95
83660;SHT30;73632;50.808;3.422;2023-12-20T11:55:56;8.81;81.85
83660;SHT30;73632;50.808;3.422;2023-12-20T11:58:21;8.89;81.77
83660;SHT30;73632;50.808;3.422;2023-12-20T12:00:49;8.87;81.95
83660;SHT30;73632;50.808;3.422;2023-12-20T12:03:15;8.91;81.63
83660;SHT30;73632;50.808;3.422;2023-12-20T12:05:40;9.01;81.70
83660;SHT30;73632;50.808;3.422;2023-12-20T12:08:06;9.14;81.22
83660;SHT30;73632;50.808;3.422;2023-12-20T12:10:33;9.10;81.18
83660;SHT30;73632;50.808;3.422;2023-12-20T12:12:58;9.01;81.67
83660;SHT30;73632;50.808;3.422;2023-12-20T12:15:25;9.08;81.57
83660;SHT30;73632;50.808;3.422;2023-12-20T12:17:57;9.01;81.85
83660;SHT30;73632;50.808;3.422;2023-12-20T12:20:23;9.05;82.31
83660;SHT30;73632;50.808;3.422;2023-12-20T12:23:02;9.17;81.61
83660;SHT30;73632;50.808;3.422;2023-12-20T12:25:29;9.25;81.46
83660;SHT30;73632;50.808;3.422;2023-12-20T12:27:56;9.24;81.45
83660;SHT30;73632;50.808;3.422;2023-12-20T12:30:23;9.29;81.20
83660;SHT30;73632;50.808;3.422;2023-12-20T12:32:48;9.31;81.24
83660;SHT30;73632;50.808;3.422;2023-12-20T12:35:14;9.34;81.37
83660;SHT30;73632;50.808;3.422;2023-12-20T12:37:40;9.32;81.51
83660;SHT30;73632;50.808;3.422;2023-12-20T12:40:10;9.40;81.40
83660;SHT30;73632;50.808;3.422;2023-12-20T12:42:37;9.45;81.11
83660;SHT30;73632;50.808;3.422;2023-12-20T12:45:03;9.58;81.09
83660;SHT30;73632;50.808;3.422;2023-12-20T12:47:29;9.55;81.53
83660;SHT30;73632;50.808;3.422;2023-12-20T12:49:56;9.56;80.77
83660;SHT30;73632;50.808;3.422;2023-12-20T12:52:22;9.63;80.88
83660;SHT30;73632;50.808;3.422;2023-12-20T12:54:48;9.50;80.74
83660;SHT30;73632;50.808;3.422;2023-12-20T12:57:14;9.49;80.74
83660;SHT30;73632;50.808;3.422;2023-12-20T12:59:40;9.53;80.75
83660;SHT30;73632;50.808;3.422;2023-12-20T13:02:06;9.52;81.05
83660;SHT30;73632;50.808;3.422;2023-12-20T13:04:31;9.59;80.80
83660;SHT30;73632;50.808;3.422;2023-12-20T13:06:57;9.72;80.01
83660;SHT30;73632;50.808;3.422;2023-12-20T13:09:23;9.76;80.43
83660;SHT30;73632;50.808;3.422;2023-12-20T13:11:48;9.79;80.46
83660;SHT30;73632;50.808;3.422;2023-12-20T13:14:14;9.87;79.81
83660;SHT30;73632;50.808;3.422;2023-12-20T13:16:41;9.92;79.68
83660;SHT30;73632;50.808;3.422;2023-12-20T13:19:07;9.90;79.55
83660;SHT30;73632;50.808;3.422;2023-12-20T13:21:32;9.94;79.18
83660;SHT30;73632;50.808;3.422;2023-12-20T13:23:58;9.97;79.48
83660;SHT30;73632;50.808;3.422;2023-12-20T13:26:23;9.92;79.74
83660;SHT30;73632;50.808;3.422;2023-12-20T13:28:49;9.89;79.26
83660;SHT30;73632;50.808;3.422;2023-12-20T13:31:14;9.83;79.49
83660;SHT30;73632;50.808;3.422;2023-12-20T13:33:39;9.93;78.79
83660;SHT30;73632;50.808;3.422;2023-12-20T13:36:05;9.87;78.54
83660;SHT30;73632;50.808;3.422;2023-12-20T13:38:31;9.99;78.68
83660;SHT30;73632;50.808;3.422;2023-12-20T13:40:57;9.92;78.76
83660;SHT30;73632;50.808;3.422;2023-12-20T13:43:23;9.92;79.07
83660;SHT30;73632;50.808;3.422;2023-12-20T13:45:50;9.94;78.95
83660;SHT30;73632;50.808;3.422;2023-12-20T13:48:15;9.86;79.04
83660;SHT30;73632;50.808;3.422;2023-12-20T13:50:41;9.86;79.15
83660;SHT30;73632;50.808;3.422;2023-12-20T13:53:06;9.92;79.06
83660;SHT30;73632;50.808;3.422;2023-12-20T13:55:32;9.90;79.07
83660;SHT30;73632;50.808;3.422;2023-12-20T13:57:57;9.82;79.19
83660;SHT30;73632;50.808;3.422;2023-12-20T14:00:23;9.78;79.98
83660;SHT30;73632;50.808;3.422;2023-12-20T14:02:49;9.76;79.80
83660;SHT30;73632;50.808;3.422;2023-12-20T14:05:15;9.76;80.13
83660;SHT30;73632;50.808;3.422;2023-12-20T14:07:43;9.75;80.34
83660;SHT30;73632;50.808;3.422;2023-12-20T14:10:13;9.75;80.51
83660;SHT30;73632;50.808;3.422;2023-12-20T14:12:39;9.78;79.99
83660;SHT30;73632;50.808;3.422;2023-12-20T14:15:05;9.79;80.43
83660;SHT30;73632;50.808;3.422;2023-12-20T14:17:39;9.85;80.10
83660;SHT30;73632;50.808;3.422;2023-12-20T14:20:06;9.83;80.35
83660;SHT30;73632;50.808;3.422;2023-12-20T14:22:32;9.78;80.45
83660;SHT30;73632;50.808;3.422;2023-12-20T14:24:57;9.93;80.14
83660;SHT30;73632;50.808;3.422;2023-12-20T14:27:23;9.92;80.27
83660;SHT30;73632;50.808;3.422;2023-12-20T14:29:50;9.92;80.51
83660;SHT30;73632;50.808;3.422;2023-12-20T14:32:15;9.85;80.61
83660;SHT30;73632;50.808;3.422;2023-12-20T14:34:41;9.82;80.69
83660;SHT30;73632;50.808;3.422;2023-12-20T14:37:07;9.85;80.67
83660;SHT30;73632;50.808;3.422;2023-12-20T14:39:32;9.75;81.00
83660;SHT30;73632;50.808;3.422;2023-12-20T14:41:58;9.76;80.93
83660;SHT30;73632;50.808;3.422;2023-12-20T14:44:23;9.76;80.98
83660;SHT30;73632;50.808;3.422;2023-12-20T14:46:49;9.73;81.06
83660;SHT30;73632;50.808;3.422;2023-12-20T14:49:15;9.73;81.48
83660;SHT30;73632;50.808;3.422;2023-12-20T14:51:43;9.89;80.94
83660;SHT30;73632;50.808;3.422;2023-12-20T14:54:09;9.83;81.05
83660;SHT30;73632;50.808;3.422;2023-12-20T14:56:35;9.75;81.23
83660;SHT30;73632;50.808;3.422;2023-12-20T14:59:01;9.68;81.45
83660;SHT30;73632;50.808;3.422;2023-12-20T15:01:26;9.73;81.22
83660;SHT30;73632;50.808;3.422;2023-12-20T15:03:52;9.68;81.50
83660;SHT30;73632;50.808;3.422;2023-12-20T15:06:18;9.68;81.30
83660;SHT30;73632;50.808;3.422;2023-12-20T15:08:45;9.56;81.82
83660;SHT30;73632;50.808;3.422;2023-12-20T15:11:11;9.55;81.76
83660;SHT30;73632;50.808;3.422;2023-12-20T15:13:36;9.48;82.13
83660;SHT30;73632;50.808;3.422;2023-12-20T15:16:02;9.48;82.38
83660;SHT30;73632;50.808;3.422;2023-12-20T15:18:27;9.56;81.81
83660;SHT30;73632;50.808;3.422;2023-12-20T15:20:53;9.60;81.56
83660;SHT30;73632;50.808;3.422;2023-12-20T15:23:18;9.52;81.77
83660;SHT30;73632;50.808;3.422;2023-12-20T15:25:45;9.45;82.17
83660;SHT30;73632;50.808;3.422;2023-12-20T15:28:10;9.39;82.35
83660;SHT30;73632;50.808;3.422;2023-12-20T15:30:36;9.48;81.98
83660;SHT30;73632;50.808;3.422;2023-12-20T15:33:01;9.46;82.26
83660;SHT30;73632;50.808;3.422;2023-12-20T15:35:28;9.53;82.01
83660;SHT30;73632;50.808;3.422;2023-12-20T15:37:53;9.52;82.13
83660;SHT30;73632;50.808;3.422;2023-12-20T15:40:19;9.53;82.47
83660;SHT30;73632;50.808;3.422;2023-12-20T15:42:44;9.55;82.42
83660;SHT30;73632;50.808;3.422;2023-12-20T15:45:10;9.53;82.27
83660;SHT30;73632;50.808;3.422;2023-12-20T15:47:35;9.58;82.24